sensor_id;sensor_type;location;lat;lon;timestamp;P1;durP1;ratioP1;P2;durP2;ratioP2
5662;SDS011;2854;42.692;23.364;2022-09-17T00:00:55;4.20;;;2.73;;
5662;SDS011;2854;42.692;23.364;2022-09-17T00:03:22;3.10;;;2.87;;
5662;SDS011;2854;42.692;23.364;2022-09-17T00:05:48;13.93;;;3.63;;
5662;SDS011;2854;42.692;23.364;2022-09-17T00:08:14;4.60;;;2.87;;
5662;SDS011;2854;42.692;23.364;2022-09-17T00:10:40;3.80;;;3.10;;
5662;SDS011;2854;42.692;23.364;2022-09-17T00:13:06;5.00;;;3.00;;
5662;SDS011;2854;42.692;23.364;2022-09-17T00:15:31;2.90;;;2.70;;
5662;SDS011;2854;42.692;23.364;2022-09-17T00:17:57;8.40;;;3.10;;
5662;SDS011;2854;42.692;23.364;2022-09-17T00:20:23;5.30;;;3.10;;
5662;SDS011;2854;42.692;23.364;2022-09-17T00:22:48;5.10;;;3.50;;
5662;SDS011;2854;42.692;23.364;2022-09-17T00:25:13;3.33;;;3.03;;
5662;SDS011;2854;42.692;23.364;2022-09-17T00:27:39;3.97;;;2.80;;
5662;SDS011;2854;42.692;23.364;2022-09-17T00:30:04;4.37;;;3.00;;
5662;SDS011;2854;42.692;23.364;2022-09-17T00:32:29;10.50;;;4.20;;
5662;SDS011;2854;42.692;23.364;2022-09-17T00:34:55;3.00;;;2.80;;
5662;SDS011;2854;42.692;23.364;2022-09-17T00:37:20;3.20;;;3.00;;
5662;SDS011;2854;42.692;23.364;2022-09-17T00:39:46;4.10;;;3.57;;
5662;SDS011;2854;42.692;23.364;2022-09-17T00:42:11;5.20;;;3.40;;
5662;SDS011;2854;42.692;23.364;2022-09-17T00:49:44;4.53;;;3.13;;
5662;SDS011;2854;42.692;23.364;2022-09-17T00:52:11;6.57;;;3.17;;
5662;SDS011;2854;42.692;23.364;2022-09-17T00:54:38;4.10;;;3.30;;
5662;SDS011;2854;42.692;23.364;2022-09-17T00:57:05;4.60;;;2.60;;
5662;SDS011;2854;42.692;23.364;2022-09-17T00:59:30;3.50;;;3.20;;
5662;SDS011;2854;42.692;23.364;2022-09-17T01:01:56;3.60;;;2.30;;
5662;SDS011;2854;42.692;23.364;2022-09-17T01:04:23;4.27;;;2.57;;
5662;SDS011;2854;42.692;23.364;2022-09-17T01:12:07;2.67;;;2.43;;
5662;SDS011;2854;42.692;23.364;2022-09-17T01:22:36;2.20;;;2.00;;
5662;SDS011;2854;42.692;23.364;2022-09-17T01:32:44;4.97;;;2.70;;
5662;SDS011;2854;42.692;23.364;2022-09-17T01:35:24;2.83;;;2.40;;
5662;SDS011;2854;42.692;23.364;2022-09-17T01:37:56;2.90;;;2.70;;
5662;SDS011;2854;42.692;23.364;2022-09-17T01:40:25;3.63;;;2.83;;
5662;SDS011;2854;42.692;23.364;2022-09-17T01:42:56;3.30;;;3.10;;
5662;SDS011;2854;42.692;23.364;2022-09-17T01:45:29;3.00;;;2.70;;
5662;SDS011;2854;42.692;23.364;2022-09-17T01:47:57;4.80;;;2.57;;
5662;SDS011;2854;42.692;23.364;2022-09-17T01:50:24;3.83;;;2.80;;
5662;SDS011;2854;42.692;23.364;2022-09-17T01:52:51;3.30;;;2.60;;
5662;SDS011;2854;42.692;23.364;2022-09-17T01:55:17;3.30;;;3.10;;
5662;SDS011;2854;42.692;23.364;2022-09-17T02:00:11;2.23;;;2.07;;
5662;SDS011;2854;42.692;23.364;2022-09-17T02:05:17;4.03;;;2.60;;
5662;SDS011;2854;42.692;23.364;2022-09-17T02:07:49;2.83;;;2.63;;
5662;SDS011;2854;42.692;23.364;2022-09-17T02:10:23;2.73;;;2.13;;
5662;SDS011;2854;42.692;23.364;2022-09-17T02:12:51;3.13;;;2.77;;
5662;SDS011;2854;42.692;23.364;2022-09-17T02:15:20;4.60;;;2.60;;
5662;SDS011;2854;42.692;23.364;2022-09-17T02:18:04;5.87;;;2.60;;
5662;SDS011;2854;42.692;23.364;2022-09-17T02:20:34;3.07;;;2.87;;
5662;SDS011;2854;42.692;23.364;2022-09-17T02:23:04;2.93;;;2.60;;
5662;SDS011;2854;42.692;23.364;2022-09-17T02:25:32;2.77;;;2.57;;
5662;SDS011;2854;42.692;23.364;2022-09-17T02:30:26;2.93;;;2.30;;
5662;SDS011;2854;42.692;23.364;2022-09-17T02:32:52;3.57;;;2.30;;
5662;SDS011;2854;42.692;23.364;2022-09-17T02:35:17;2.73;;;2.40;;
5662;SDS011;2854;42.692;23.364;2022-09-17T02:37:43;2.87;;;2.67;;
5662;SDS011;2854;42.692;23.364;2022-09-17T02:40:09;3.97;;;1.90;;
5662;SDS011;2854;42.692;23.364;2022-09-17T02:57:57;3.63;;;3.00;;
5662;SDS011;2854;42.692;23.364;2022-09-17T03:00:24;4.60;;;3.03;;
5662;SDS011;2854;42.692;23.364;2022-09-17T03:05:17;5.70;;;2.60;;
5662;SDS011;2854;42.692;23.364;2022-09-17T03:07:43;4.00;;;3.10;;
5662;SDS011;2854;42.692;23.364;2022-09-17T03:10:09;3.50;;;2.30;;
5662;SDS011;2854;42.692;23.364;2022-09-17T03:12:34;3.60;;;2.20;;
5662;SDS011;2854;42.692;23.364;2022-09-17T03:15:00;3.43;;;2.40;;
5662;SDS011;2854;42.692;23.364;2022-09-17T03:17:25;3.67;;;2.73;;
5662;SDS011;2854;42.692;23.364;2022-09-17T03:19:50;4.30;;;3.00;;
5662;SDS011;2854;42.692;23.364;2022-09-17T03:22:16;3.20;;;2.33;;
5662;SDS011;2854;42.692;23.364;2022-09-17T03:24:41;8.70;;;2.20;;
5662;SDS011;2854;42.692;23.364;2022-09-17T03:27:06;3.67;;;2.43;;
5662;SDS011;2854;42.692;23.364;2022-09-17T03:29:31;2.40;;;2.10;;
5662;SDS011;2854;42.692;23.364;2022-09-17T03:31:57;3.27;;;2.53;;
5662;SDS011;2854;42.692;23.364;2022-09-17T03:34:23;3.20;;;3.00;;
5662;SDS011;2854;42.692;23.364;2022-09-17T03:36:48;12.23;;;3.20;;
5662;SDS011;2854;42.692;23.364;2022-09-17T03:39:13;3.10;;;2.50;;
5662;SDS011;2854;42.692;23.364;2022-09-17T03:41:39;2.50;;;2.37;;
5662;SDS011;2854;42.692;23.364;2022-09-17T03:44:04;3.90;;;2.87;;
5662;SDS011;2854;42.692;23.364;2022-09-17T03:46:30;3.33;;;3.13;;
5662;SDS011;2854;42.692;23.364;2022-09-17T03:48:55;3.20;;;3.00;;
5662;SDS011;2854;42.692;23.364;2022-09-17T03:51:20;2.67;;;2.47;;
5662;SDS011;2854;42.692;23.364;2022-09-17T03:53:46;2.80;;;2.60;;
5662;SDS011;2854;42.692;23.364;2022-09-17T03:56:11;2.20;;;2.00;;
5662;SDS011;2854;42.692;23.364;2022-09-17T03:58:36;3.90;;;2.50;;
5662;SDS011;2854;42.692;23.364;2022-09-17T04:01:02;4.50;;;2.60;;
5662;SDS011;2854;42.692;23.364;2022-09-17T04:03:29;2.47;;;2.27;;
5662;SDS011;2854;42.692;23.364;2022-09-17T04:05:54;3.93;;;2.73;;
5662;SDS011;2854;42.692;23.364;2022-09-17T04:08:20;3.17;;;2.87;;
5662;SDS011;2854;42.692;23.364;2022-09-17T04:10:46;2.80;;;2.20;;
5662;SDS011;2854;42.692;23.364;2022-09-17T04:13:12;2.63;;;2.37;;
5662;SDS011;2854;42.692;23.364;2022-09-17T04:15:37;2.50;;;2.27;;
5662;SDS011;2854;42.692;23.364;2022-09-17T04:18:02;3.83;;;3.00;;
5662;SDS011;2854;42.692;23.364;2022-09-17T04:20:28;3.67;;;2.70;;
5662;SDS011;2854;42.692;23.364;2022-09-17T04:22:53;4.30;;;2.90;;
5662;SDS011;2854;42.692;23.364;2022-09-17T04:25:19;4.27;;;2.80;;
5662;SDS011;2854;42.692;23.364;2022-09-17T04:27:44;2.67;;;2.40;;
5662;SDS011;2854;42.692;23.364;2022-09-17T04:30:11;3.33;;;3.00;;
5662;SDS011;2854;42.692;23.364;2022-09-17T04:32:37;3.73;;;2.50;;
5662;SDS011;2854;42.692;23.364;2022-09-17T04:35:02;3.23;;;2.93;;
5662;SDS011;2854;42.692;23.364;2022-09-17T04:37:28;3.53;;;3.23;;
5662;SDS011;2854;42.692;23.364;2022-09-17T04:39:53;8.90;;;3.63;;
5662;SDS011;2854;42.692;23.364;2022-09-17T04:42:18;3.40;;;3.20;;
5662;SDS011;2854;42.692;23.364;2022-09-17T04:44:44;6.37;;;4.00;;
5662;SDS011;2854;42.692;23.364;2022-09-17T04:47:09;3.83;;;3.20;;
5662;SDS011;2854;42.692;23.364;2022-09-17T04:49:34;5.93;;;3.57;;
5662;SDS011;2854;42.692;23.364;2022-09-17T04:51:59;5.63;;;3.37;;
5662;SDS011;2854;42.692;23.364;2022-09-17T04:54:25;5.37;;;3.37;;
5662;SDS011;2854;42.692;23.364;2022-09-17T04:56:50;11.97;;;3.20;;
5662;SDS011;2854;42.692;23.364;2022-09-17T04:59:15;3.57;;;3.00;;
5662;SDS011;2854;42.692;23.364;2022-09-17T05:01:41;5.27;;;4.03;;
5662;SDS011;2854;42.692;23.364;2022-09-17T05:04:07;5.20;;;4.17;;
5662;SDS011;2854;42.692;23.364;2022-09-17T05:06:32;4.57;;;3.37;;
5662;SDS011;2854;42.692;23.364;2022-09-17T05:08:58;5.27;;;2.93;;
5662;SDS011;2854;42.692;23.364;2022-09-17T05:11:23;2.83;;;2.53;;
5662;SDS011;2854;42.692;23.364;2022-09-17T05:13:48;5.27;;;2.37;;
5662;SDS011;2854;42.692;23.364;2022-09-17T05:16:13;4.47;;;2.43;;
5662;SDS011;2854;42.692;23.364;2022-09-17T05:18:40;4.13;;;3.07;;
5662;SDS011;2854;42.692;23.364;2022-09-17T05:21:05;2.77;;;2.20;;
5662;SDS011;2854;42.692;23.364;2022-09-17T05:23:30;2.80;;;2.60;;
5662;SDS011;2854;42.692;23.364;2022-09-17T05:25:59;4.23;;;2.87;;
5662;SDS011;2854;42.692;23.364;2022-09-17T05:28:25;3.90;;;2.53;;
5662;SDS011;2854;42.692;23.364;2022-09-17T05:30:50;1.93;;;1.83;;
5662;SDS011;2854;42.692;23.364;2022-09-17T05:33:16;6.80;;;2.50;;
5662;SDS011;2854;42.692;23.364;2022-09-17T05:35:41;2.90;;;2.37;;
5662;SDS011;2854;42.692;23.364;2022-09-17T05:38:08;2.63;;;2.40;;
5662;SDS011;2854;42.692;23.364;2022-09-17T05:40:34;4.30;;;2.30;;
5662;SDS011;2854;42.692;23.364;2022-09-17T05:43:03;2.87;;;2.27;;
5662;SDS011;2854;42.692;23.364;2022-09-17T05:45:29;4.87;;;2.60;;
5662;SDS011;2854;42.692;23.364;2022-09-17T05:47:55;5.20;;;2.77;;
5662;SDS011;2854;42.692;23.364;2022-09-17T05:50:20;4.70;;;3.10;;
5662;SDS011;2854;42.692;23.364;2022-09-17T05:52:46;5.80;;;3.83;;
5662;SDS011;2854;42.692;23.364;2022-09-17T05:55:11;6.27;;;2.80;;
5662;SDS011;2854;42.692;23.364;2022-09-17T05:57:36;4.83;;;3.10;;
5662;SDS011;2854;42.692;23.364;2022-09-17T06:00:02;5.20;;;2.63;;
5662;SDS011;2854;42.692;23.364;2022-09-17T06:02:28;3.00;;;2.80;;
5662;SDS011;2854;42.692;23.364;2022-09-17T06:04:53;3.07;;;2.77;;
5662;SDS011;2854;42.692;23.364;2022-09-17T06:07:18;4.80;;;3.00;;
5662;SDS011;2854;42.692;23.364;2022-09-17T06:09:44;3.37;;;2.80;;
5662;SDS011;2854;42.692;23.364;2022-09-17T06:12:09;3.33;;;2.97;;
5662;SDS011;2854;42.692;23.364;2022-09-17T06:14:34;8.10;;;3.00;;
5662;SDS011;2854;42.692;23.364;2022-09-17T06:17:00;3.57;;;3.00;;
5662;SDS011;2854;42.692;23.364;2022-09-17T06:19:26;4.27;;;3.13;;
5662;SDS011;2854;42.692;23.364;2022-09-17T06:21:51;3.37;;;3.07;;
5662;SDS011;2854;42.692;23.364;2022-09-17T06:24:16;2.93;;;2.73;;
5662;SDS011;2854;42.692;23.364;2022-09-17T06:26:41;5.00;;;2.80;;
5662;SDS011;2854;42.692;23.364;2022-09-17T06:29:07;3.87;;;3.27;;
5662;SDS011;2854;42.692;23.364;2022-09-17T06:31:32;4.93;;;3.73;;
5662;SDS011;2854;42.692;23.364;2022-09-17T06:33:57;5.00;;;3.50;;
5662;SDS011;2854;42.692;23.364;2022-09-17T06:36:23;6.13;;;3.03;;
5662;SDS011;2854;42.692;23.364;2022-09-17T06:38:48;3.37;;;3.07;;
5662;SDS011;2854;42.692;23.364;2022-09-17T06:41:13;4.60;;;3.03;;
5662;SDS011;2854;42.692;23.364;2022-09-17T06:43:40;5.00;;;3.40;;
5662;SDS011;2854;42.692;23.364;2022-09-17T06:46:06;3.50;;;3.20;;
5662;SDS011;2854;42.692;23.364;2022-09-17T06:48:33;3.43;;;3.13;;
5662;SDS011;2854;42.692;23.364;2022-09-17T06:51:03;4.97;;;3.17;;
5662;SDS011;2854;42.692;23.364;2022-09-17T06:53:28;5.10;;;2.70;;
5662;SDS011;2854;42.692;23.364;2022-09-17T06:55:55;2.87;;;2.10;;
5662;SDS011;2854;42.692;23.364;2022-09-17T06:58:20;2.63;;;2.30;;
5662;SDS011;2854;42.692;23.364;2022-09-17T07:00:46;2.53;;;2.33;;
5662;SDS011;2854;42.692;23.364;2022-09-17T07:03:11;2.20;;;2.10;;
5662;SDS011;2854;42.692;23.364;2022-09-17T07:05:37;4.63;;;3.10;;
5662;SDS011;2854;42.692;23.364;2022-09-17T07:08:02;2.80;;;1.70;;
5662;SDS011;2854;42.692;23.364;2022-09-17T07:10:27;4.50;;;2.77;;
5662;SDS011;2854;42.692;23.364;2022-09-17T07:12:53;3.33;;;3.00;;
5662;SDS011;2854;42.692;23.364;2022-09-17T07:15:18;8.20;;;3.43;;
5662;SDS011;2854;42.692;23.364;2022-09-17T07:17:44;4.17;;;3.33;;
5662;SDS011;2854;42.692;23.364;2022-09-17T07:20:09;9.33;;;3.50;;
5662;SDS011;2854;42.692;23.364;2022-09-17T07:22:35;4.77;;;3.53;;
5662;SDS011;2854;42.692;23.364;2022-09-17T07:25:00;8.40;;;3.07;;
5662;SDS011;2854;42.692;23.364;2022-09-17T07:27:26;2.93;;;2.73;;
5662;SDS011;2854;42.692;23.364;2022-09-17T07:29:52;3.53;;;2.77;;
5662;SDS011;2854;42.692;23.364;2022-09-17T07:32:17;2.70;;;2.50;;
5662;SDS011;2854;42.692;23.364;2022-09-17T07:34:42;2.80;;;2.27;;
5662;SDS011;2854;42.692;23.364;2022-09-17T07:37:07;4.57;;;2.57;;
5662;SDS011;2854;42.692;23.364;2022-09-17T07:39:33;2.40;;;2.20;;
5662;SDS011;2854;42.692;23.364;2022-09-17T07:41:59;2.33;;;1.80;;
5662;SDS011;2854;42.692;23.364;2022-09-17T07:44:24;3.67;;;1.27;;
5662;SDS011;2854;42.692;23.364;2022-09-17T07:46:50;1.20;;;1.10;;
5662;SDS011;2854;42.692;23.364;2022-09-17T07:49:15;1.20;;;1.10;;
5662;SDS011;2854;42.692;23.364;2022-09-17T07:51:40;1.27;;;0.90;;
5662;SDS011;2854;42.692;23.364;2022-09-17T07:54:05;1.97;;;1.13;;
5662;SDS011;2854;42.692;23.364;2022-09-17T07:56:31;1.83;;;1.20;;
5662;SDS011;2854;42.692;23.364;2022-09-17T07:58:56;4.10;;;1.10;;
5662;SDS011;2854;42.692;23.364;2022-09-17T08:01:22;2.30;;;0.90;;
5662;SDS011;2854;42.692;23.364;2022-09-17T08:03:48;1.90;;;1.00;;
5662;SDS011;2854;42.692;23.364;2022-09-17T08:06:15;3.37;;;0.73;;
5662;SDS011;2854;42.692;23.364;2022-09-17T08:08:40;1.80;;;0.90;;
5662;SDS011;2854;42.692;23.364;2022-09-17T08:11:07;2.20;;;1.20;;
5662;SDS011;2854;42.692;23.364;2022-09-17T08:13:32;1.00;;;0.90;;
5662;SDS011;2854;42.692;23.364;2022-09-17T08:16:01;2.40;;;0.90;;
5662;SDS011;2854;42.692;23.364;2022-09-17T08:18:27;1.53;;;1.43;;
5662;SDS011;2854;42.692;23.364;2022-09-17T08:20:55;1.63;;;0.93;;
5662;SDS011;2854;42.692;23.364;2022-09-17T08:23:20;1.10;;;1.00;;
5662;SDS011;2854;42.692;23.364;2022-09-17T08:25:50;0.87;;;0.80;;
5662;SDS011;2854;42.692;23.364;2022-09-17T08:28:16;2.00;;;0.87;;
5662;SDS011;2854;42.692;23.364;2022-09-17T08:30:41;1.10;;;1.00;;
5662;SDS011;2854;42.692;23.364;2022-09-17T08:33:06;1.07;;;0.97;;
5662;SDS011;2854;42.692;23.364;2022-09-17T08:35:31;1.07;;;0.73;;
5662;SDS011;2854;42.692;23.364;2022-09-17T08:37:57;0.97;;;0.97;;
5662;SDS011;2854;42.692;23.364;2022-09-17T08:40:22;0.80;;;0.73;;
5662;SDS011;2854;42.692;23.364;2022-09-17T08:42:50;0.80;;;0.73;;
5662;SDS011;2854;42.692;23.364;2022-09-17T08:45:18;1.30;;;1.00;;
5662;SDS011;2854;42.692;23.364;2022-09-17T08:47:43;4.13;;;0.87;;
5662;SDS011;2854;42.692;23.364;2022-09-17T08:50:14;1.93;;;1.00;;
5662;SDS011;2854;42.692;23.364;2022-09-17T09:00:10;0.80;;;0.77;;
5662;SDS011;2854;42.692;23.364;2022-09-17T09:05:21;0.90;;;0.80;;
5662;SDS011;2854;42.692;23.364;2022-09-17T09:07:51;0.80;;;0.80;;
5662;SDS011;2854;42.692;23.364;2022-09-17T09:10:19;3.37;;;1.30;;
5662;SDS011;2854;42.692;23.364;2022-09-17T09:12:47;1.67;;;1.37;;
5662;SDS011;2854;42.692;23.364;2022-09-17T09:17:46;1.00;;;0.90;;
5662;SDS011;2854;42.692;23.364;2022-09-17T09:22:49;2.60;;;1.13;;
5662;SDS011;2854;42.692;23.364;2022-09-17T09:25:25;2.13;;;2.03;;
5662;SDS011;2854;42.692;23.364;2022-09-17T09:30:26;3.47;;;1.27;;
5662;SDS011;2854;42.692;23.364;2022-09-17T09:32:59;2.60;;;1.60;;
5662;SDS011;2854;42.692;23.364;2022-09-17T09:35:30;1.50;;;1.40;;
5662;SDS011;2854;42.692;23.364;2022-09-17T09:40:28;2.13;;;1.60;;
5662;SDS011;2854;42.692;23.364;2022-09-17T09:42:56;3.40;;;1.73;;
5662;SDS011;2854;42.692;23.364;2022-09-17T09:45:32;3.93;;;1.43;;
5662;SDS011;2854;42.692;23.364;2022-09-17T09:48:15;1.57;;;1.43;;
5662;SDS011;2854;42.692;23.364;2022-09-17T09:58:40;3.83;;;2.40;;
5662;SDS011;2854;42.692;23.364;2022-09-17T10:01:16;2.17;;;1.90;;
5662;SDS011;2854;42.692;23.364;2022-09-17T10:03:42;3.37;;;2.40;;
5662;SDS011;2854;42.692;23.364;2022-09-17T10:06:10;1.97;;;1.87;;
5662;SDS011;2854;42.692;23.364;2022-09-17T10:08:37;3.63;;;3.20;;
5662;SDS011;2854;42.692;23.364;2022-09-17T10:13:29;2.27;;;2.00;;
5662;SDS011;2854;42.692;23.364;2022-09-17T10:15:55;3.53;;;2.73;;
5662;SDS011;2854;42.692;23.364;2022-09-17T10:18:21;2.20;;;2.03;;
5662;SDS011;2854;42.692;23.364;2022-09-17T10:20:59;2.40;;;2.17;;
5662;SDS011;2854;42.692;23.364;2022-09-17T10:23:28;2.70;;;1.90;;
5662;SDS011;2854;42.692;23.364;2022-09-17T10:25:54;2.37;;;1.53;;
5662;SDS011;2854;42.692;23.364;2022-09-17T10:28:54;1.87;;;1.40;;
5662;SDS011;2854;42.692;23.364;2022-09-17T10:31:11;1.80;;;1.70;;
5662;SDS011;2854;42.692;23.364;2022-09-17T10:33:38;2.30;;;1.70;;
5662;SDS011;2854;42.692;23.364;2022-09-17T10:36:10;1.40;;;1.30;;
5662;SDS011;2854;42.692;23.364;2022-09-17T10:38:37;2.50;;;1.20;;
5662;SDS011;2854;42.692;23.364;2022-09-17T10:43:34;2.40;;;1.60;;
5662;SDS011;2854;42.692;23.364;2022-09-17T10:46:00;4.70;;;1.60;;
5662;SDS011;2854;42.692;23.364;2022-09-17T10:48:27;1.60;;;1.40;;
5662;SDS011;2854;42.692;23.364;2022-09-17T10:50:55;1.83;;;1.20;;
5662;SDS011;2854;42.692;23.364;2022-09-17T10:53:20;1.40;;;1.30;;
5662;SDS011;2854;42.692;23.364;2022-09-17T11:01:01;2.33;;;1.80;;
5662;SDS011;2854;42.692;23.364;2022-09-17T11:30:17;1.80;;;1.70;;
5662;SDS011;2854;42.692;23.364;2022-09-17T11:37:35;1.70;;;1.60;;
5662;SDS011;2854;42.692;23.364;2022-09-17T11:40:07;1.67;;;1.47;;
5662;SDS011;2854;42.692;23.364;2022-09-17T11:42:37;1.80;;;1.67;;
5662;SDS011;2854;42.692;23.364;2022-09-17T11:45:14;4.20;;;2.30;;
5662;SDS011;2854;42.692;23.364;2022-09-17T11:47:45;1.73;;;1.63;;
5662;SDS011;2854;42.692;23.364;2022-09-17T11:52:44;1.63;;;1.53;;
5662;SDS011;2854;42.692;23.364;2022-09-17T11:55:22;1.63;;;1.53;;
5662;SDS011;2854;42.692;23.364;2022-09-17T11:57:51;1.80;;;1.70;;
5662;SDS011;2854;42.692;23.364;2022-09-17T12:00:21;2.77;;;1.73;;
5662;SDS011;2854;42.692;23.364;2022-09-17T12:02:51;1.90;;;1.40;;
5662;SDS011;2854;42.692;23.364;2022-09-17T12:05:19;3.03;;;2.10;;
5662;SDS011;2854;42.692;23.364;2022-09-17T12:10:26;1.47;;;1.37;;
5662;SDS011;2854;42.692;23.364;2022-09-17T12:15:43;1.40;;;1.30;;
5662;SDS011;2854;42.692;23.364;2022-09-17T12:20:48;2.07;;;1.70;;
5662;SDS011;2854;42.692;23.364;2022-09-17T12:23:16;1.97;;;1.77;;
5662;SDS011;2854;42.692;23.364;2022-09-17T12:25:49;4.70;;;1.97;;
5662;SDS011;2854;42.692;23.364;2022-09-17T12:31:17;1.37;;;1.27;;
5662;SDS011;2854;42.692;23.364;2022-09-17T12:33:47;3.03;;;1.13;;
5662;SDS011;2854;42.692;23.364;2022-09-17T12:51:58;1.80;;;1.70;;
5662;SDS011;2854;42.692;23.364;2022-09-17T12:59:27;5.17;;;2.83;;
5662;SDS011;2854;42.692;23.364;2022-09-17T13:17:21;2.60;;;1.97;;
5662;SDS011;2854;42.692;23.364;2022-09-17T13:19:57;2.03;;;1.93;;
5662;SDS011;2854;42.692;23.364;2022-09-17T13:22:30;2.00;;;1.80;;
5662;SDS011;2854;42.692;23.364;2022-09-17T13:25:02;2.80;;;2.50;;
5662;SDS011;2854;42.692;23.364;2022-09-17T13:27:28;2.70;;;2.13;;
5662;SDS011;2854;42.692;23.364;2022-09-17T13:34:56;1.93;;;1.83;;
5662;SDS011;2854;42.692;23.364;2022-09-17T13:37:21;2.17;;;2.00;;
5662;SDS011;2854;42.692;23.364;2022-09-17T13:39:49;2.10;;;1.97;;
5662;SDS011;2854;42.692;23.364;2022-09-17T13:42:19;1.97;;;1.83;;
5662;SDS011;2854;42.692;23.364;2022-09-17T13:44:50;2.80;;;2.10;;
5662;SDS011;2854;42.692;23.364;2022-09-17T13:47:23;3.03;;;2.70;;
5662;SDS011;2854;42.692;23.364;2022-09-17T13:49:54;2.83;;;2.63;;
5662;SDS011;2854;42.692;23.364;2022-09-17T13:52:55;2.53;;;2.33;;
5662;SDS011;2854;42.692;23.364;2022-09-17T13:55:29;2.00;;;1.90;;
5662;SDS011;2854;42.692;23.364;2022-09-17T13:57:55;4.37;;;1.97;;
5662;SDS011;2854;42.692;23.364;2022-09-17T14:05:50;2.10;;;2.00;;
5662;SDS011;2854;42.692;23.364;2022-09-17T14:08:23;3.20;;;2.20;;
5662;SDS011;2854;42.692;23.364;2022-09-17T14:10:52;2.40;;;2.20;;
5662;SDS011;2854;42.692;23.364;2022-09-17T14:13:37;2.00;;;1.80;;
5662;SDS011;2854;42.692;23.364;2022-09-17T14:16:13;2.10;;;2.00;;
5662;SDS011;2854;42.692;23.364;2022-09-17T14:18:54;1.67;;;1.57;;
5662;SDS011;2854;42.692;23.364;2022-09-17T14:21:22;2.07;;;1.97;;
5662;SDS011;2854;42.692;23.364;2022-09-17T14:23:51;5.20;;;2.17;;
5662;SDS011;2854;42.692;23.364;2022-09-17T14:26:24;5.93;;;2.90;;
5662;SDS011;2854;42.692;23.364;2022-09-17T14:28:59;2.70;;;2.50;;
5662;SDS011;2854;42.692;23.364;2022-09-17T14:31:30;3.00;;;2.10;;
5662;SDS011;2854;42.692;23.364;2022-09-17T14:33:56;4.23;;;3.70;;
5662;SDS011;2854;42.692;23.364;2022-09-17T14:36:22;9.63;;;6.17;;
5662;SDS011;2854;42.692;23.364;2022-09-17T14:38:50;12.90;;;9.60;;
5662;SDS011;2854;42.692;23.364;2022-09-17T14:41:21;13.10;;;7.70;;
5662;SDS011;2854;42.692;23.364;2022-09-17T14:46:15;5.73;;;2.83;;
5662;SDS011;2854;42.692;23.364;2022-09-17T14:48:41;1.83;;;1.20;;
5662;SDS011;2854;42.692;23.364;2022-09-17T14:51:25;1.80;;;1.70;;
5662;SDS011;2854;42.692;23.364;2022-09-17T14:56:52;1.40;;;1.30;;
5662;SDS011;2854;42.692;23.364;2022-09-17T14:59:19;2.00;;;0.60;;
5662;SDS011;2854;42.692;23.364;2022-09-17T15:01:45;1.60;;;1.50;;
5662;SDS011;2854;42.692;23.364;2022-09-17T15:06:37;1.67;;;1.57;;
5662;SDS011;2854;42.692;23.364;2022-09-17T15:09:02;1.10;;;1.10;;
5662;SDS011;2854;42.692;23.364;2022-09-17T15:11:27;1.50;;;1.40;;
5662;SDS011;2854;42.692;23.364;2022-09-17T15:13:54;1.17;;;1.07;;
5662;SDS011;2854;42.692;23.364;2022-09-17T15:16:21;2.30;;;1.27;;
5662;SDS011;2854;42.692;23.364;2022-09-17T15:18:51;2.13;;;2.00;;
5662;SDS011;2854;42.692;23.364;2022-09-17T15:23:42;1.67;;;1.03;;
5662;SDS011;2854;42.692;23.364;2022-09-17T15:26:08;0.97;;;0.90;;
5662;SDS011;2854;42.692;23.364;2022-09-17T15:28:38;1.87;;;1.20;;
5662;SDS011;2854;42.692;23.364;2022-09-17T15:31:05;1.10;;;1.00;;
5662;SDS011;2854;42.692;23.364;2022-09-17T15:33:35;1.20;;;1.10;;
5662;SDS011;2854;42.692;23.364;2022-09-17T15:36:02;1.27;;;0.93;;
5662;SDS011;2854;42.692;23.364;2022-09-17T15:38:31;1.40;;;1.20;;
5662;SDS011;2854;42.692;23.364;2022-09-17T15:41:11;2.80;;;1.40;;
5662;SDS011;2854;42.692;23.364;2022-09-17T15:43:37;2.10;;;1.47;;
5662;SDS011;2854;42.692;23.364;2022-09-17T15:49:28;1.53;;;1.43;;
5662;SDS011;2854;42.692;23.364;2022-09-17T15:51:52;6.70;;;2.13;;
5662;SDS011;2854;42.692;23.364;2022-09-17T15:54:27;3.30;;;2.27;;
5662;SDS011;2854;42.692;23.364;2022-09-17T15:56:53;2.27;;;1.97;;
5662;SDS011;2854;42.692;23.364;2022-09-17T15:59:27;1.83;;;1.73;;
5662;SDS011;2854;42.692;23.364;2022-09-17T16:01:54;2.03;;;1.93;;
5662;SDS011;2854;42.692;23.364;2022-09-17T16:12:00;2.30;;;1.93;;
5662;SDS011;2854;42.692;23.364;2022-09-17T16:14:25;13.63;;;2.73;;
5662;SDS011;2854;42.692;23.364;2022-09-17T16:16:50;2.90;;;1.93;;
5662;SDS011;2854;42.692;23.364;2022-09-17T16:19:18;5.50;;;2.33;;
5662;SDS011;2854;42.692;23.364;2022-09-17T16:21:44;3.80;;;1.60;;
5662;SDS011;2854;42.692;23.364;2022-09-17T16:24:09;1.33;;;1.23;;
5662;SDS011;2854;42.692;23.364;2022-09-17T16:26:34;1.87;;;1.40;;
5662;SDS011;2854;42.692;23.364;2022-09-17T16:29:04;1.67;;;1.57;;
5662;SDS011;2854;42.692;23.364;2022-09-17T16:31:29;2.17;;;1.97;;
5662;SDS011;2854;42.692;23.364;2022-09-17T16:33:55;4.40;;;1.70;;
5662;SDS011;2854;42.692;23.364;2022-09-17T16:36:21;3.97;;;2.47;;
5662;SDS011;2854;42.692;23.364;2022-09-17T16:38:46;1.70;;;1.60;;
5662;SDS011;2854;42.692;23.364;2022-09-17T16:41:12;1.20;;;1.10;;
5662;SDS011;2854;42.692;23.364;2022-09-17T16:43:37;2.17;;;1.97;;
5662;SDS011;2854;42.692;23.364;2022-09-17T16:46:05;7.80;;;1.63;;
5662;SDS011;2854;42.692;23.364;2022-09-17T16:48:31;6.30;;;2.00;;
5662;SDS011;2854;42.692;23.364;2022-09-17T16:50:56;2.40;;;2.03;;
5662;SDS011;2854;42.692;23.364;2022-09-17T16:53:22;2.17;;;1.83;;
5662;SDS011;2854;42.692;23.364;2022-09-17T16:55:47;3.10;;;2.20;;
5662;SDS011;2854;42.692;23.364;2022-09-17T16:58:13;4.80;;;2.83;;
5662;SDS011;2854;42.692;23.364;2022-09-17T17:00:40;2.83;;;2.43;;
5662;SDS011;2854;42.692;23.364;2022-09-17T17:03:06;3.93;;;2.20;;
5662;SDS011;2854;42.692;23.364;2022-09-17T17:05:34;1.80;;;1.70;;
5662;SDS011;2854;42.692;23.364;2022-09-17T17:08:00;4.83;;;1.23;;
5662;SDS011;2854;42.692;23.364;2022-09-17T17:10:25;6.40;;;1.57;;
5662;SDS011;2854;42.692;23.364;2022-09-17T17:12:51;2.00;;;1.80;;
5662;SDS011;2854;42.692;23.364;2022-09-17T17:15:16;1.43;;;1.33;;
5662;SDS011;2854;42.692;23.364;2022-09-17T17:17:42;1.63;;;1.50;;
5662;SDS011;2854;42.692;23.364;2022-09-17T17:20:07;1.33;;;1.23;;
5662;SDS011;2854;42.692;23.364;2022-09-17T17:22:33;1.73;;;1.63;;
5662;SDS011;2854;42.692;23.364;2022-09-17T17:24:59;2.07;;;1.87;;
5662;SDS011;2854;42.692;23.364;2022-09-17T17:27:24;3.50;;;2.10;;
5662;SDS011;2854;42.692;23.364;2022-09-17T17:29:49;3.83;;;1.80;;
5662;SDS011;2854;42.692;23.364;2022-09-17T17:32:14;1.50;;;1.40;;
5662;SDS011;2854;42.692;23.364;2022-09-17T17:34:40;1.30;;;1.20;;
5662;SDS011;2854;42.692;23.364;2022-09-17T17:37:05;1.00;;;0.90;;
5662;SDS011;2854;42.692;23.364;2022-09-17T17:39:30;5.30;;;2.33;;
5662;SDS011;2854;42.692;23.364;2022-09-17T17:41:56;4.03;;;1.30;;
5662;SDS011;2854;42.692;23.364;2022-09-17T17:44:21;1.70;;;1.60;;
5662;SDS011;2854;42.692;23.364;2022-09-17T17:46:46;1.73;;;1.63;;
5662;SDS011;2854;42.692;23.364;2022-09-17T17:49:12;2.80;;;1.20;;
5662;SDS011;2854;42.692;23.364;2022-09-17T17:51:37;1.47;;;1.37;;
5662;SDS011;2854;42.692;23.364;2022-09-17T17:54:02;1.40;;;1.30;;
5662;SDS011;2854;42.692;23.364;2022-09-17T17:56:27;1.33;;;1.23;;
5662;SDS011;2854;42.692;23.364;2022-09-17T17:58:53;1.60;;;1.50;;
5662;SDS011;2854;42.692;23.364;2022-09-17T18:01:21;2.27;;;1.70;;
5662;SDS011;2854;42.692;23.364;2022-09-17T18:03:47;0.97;;;0.97;;
5662;SDS011;2854;42.692;23.364;2022-09-17T18:06:13;2.77;;;1.87;;
5662;SDS011;2854;42.692;23.364;2022-09-17T18:08:39;1.70;;;1.60;;
5662;SDS011;2854;42.692;23.364;2022-09-17T18:11:05;2.77;;;2.13;;
5662;SDS011;2854;42.692;23.364;2022-09-17T18:13:32;1.43;;;1.33;;
5662;SDS011;2854;42.692;23.364;2022-09-17T18:15:58;2.83;;;1.50;;
5662;SDS011;2854;42.692;23.364;2022-09-17T18:18:24;1.87;;;1.37;;
5662;SDS011;2854;42.692;23.364;2022-09-17T18:20:50;1.30;;;1.20;;
5662;SDS011;2854;42.692;23.364;2022-09-17T18:23:17;4.00;;;0.90;;